createdAt,value
2018-11-21T00:00:52.401Z,51.10
2018-11-21T00:01:52.441Z,52.70
2018-11-21T00:02:52.471Z,51.20
2018-11-21T00:03:52.510Z,53.40
2018-11-21T00:04:52.543Z,54.90
2018-11-21T00:05:52.581Z,53.60
2018-11-21T00:06:52.617Z,54.80
2018-11-21T00:07:52.656Z,56.80
2018-11-21T00:08:52.687Z,54.40
2018-11-21T00:09:52.720Z,56.30
2018-11-21T00:10:52.754Z,60.10
2018-11-21T00:11:52.791Z,62.60
2018-11-21T00:12:52.823Z,50.60
2018-11-21T00:13:52.862Z,50.70
2018-11-21T00:14:52.895Z,47.50
2018-11-21T00:15:52.984Z,52.30
2018-11-21T00:16:52.970Z,52.00
2018-11-21T00:17:53.001Z,49.00
2018-11-21T00:18:53.042Z,50.00
2018-11-21T00:19:53.072Z,48.70
2018-11-21T00:20:53.108Z,53.80
2018-11-21T00:21:53.144Z,49.40
2018-11-21T00:22:53.328Z,45.80
2018-11-21T00:23:53.213Z,48.60
2018-11-21T00:24:53.248Z,45.50
2018-11-21T00:25:53.293Z,51.60
2018-11-21T00:26:53.318Z,46.70
2018-11-21T00:27:53.354Z,48.70
2018-11-21T00:28:53.389Z,51.90
2018-11-21T00:29:53.457Z,49.90
2018-11-21T00:30:53.463Z,55.00
2018-11-21T00:31:53.494Z,53.00
2018-11-21T00:32:53.533Z,52.00
2018-11-21T00:33:53.567Z,49.50
2018-11-21T00:34:53.604Z,46.20
2018-11-21T00:35:53.636Z,46.60
2018-11-21T00:36:53.673Z,48.60
2018-11-21T00:37:53.707Z,48.10
2018-11-21T00:38:53.744Z,46.00
2018-11-21T00:39:53.776Z,48.30
2018-11-21T00:40:53.813Z,51.90
2018-11-21T00:41:53.848Z,48.40
2018-11-21T00:42:53.882Z,48.50
2018-11-21T00:43:53.919Z,48.80
2018-11-21T00:44:53.956Z,47.30
2018-11-21T00:45:53.991Z,51.40
2018-11-21T00:46:54.026Z,49.70
2018-11-21T00:47:54.060Z,48.40
2018-11-21T00:48:54.093Z,49.90
2018-11-21T00:49:54.129Z,47.80
2018-11-21T00:50:54.171Z,54.00
2018-11-21T00:51:54.259Z,54.70
2018-11-21T00:52:54.235Z,52.60
2018-11-21T00:53:54.274Z,49.50
2018-11-21T00:54:54.312Z,50.80
2018-11-21T00:55:54.341Z,52.50
2018-11-21T00:56:54.376Z,51.00
2018-11-21T00:57:54.411Z,51.70
2018-11-21T00:58:54.448Z,51.40
2018-11-21T00:59:54.480Z,58.60
2018-11-21T01:00:54.517Z,51.20
2018-11-21T01:01:54.550Z,50.10
2018-11-21T01:02:54.598Z,51.60
2018-11-21T01:03:54.617Z,50.20
2018-11-21T01:04:54.657Z,52.90
2018-11-21T01:05:54.692Z,54.20
2018-11-21T01:06:54.723Z,56.50
2018-11-21T01:07:54.757Z,54.70
2018-11-21T01:08:54.792Z,55.10
2018-11-21T01:09:54.827Z,55.10
2018-11-21T01:10:54.862Z,55.90
2018-11-21T01:11:54.897Z,57.20
2018-11-21T01:12:54.933Z,55.30
2018-11-21T01:13:54.967Z,54.50
2018-11-21T01:14:55.000Z,55.10
2018-11-21T01:15:55.036Z,54.40
2018-11-21T01:16:55.071Z,54.10
2018-11-21T01:17:55.107Z,51.60
2018-11-21T01:18:55.141Z,56.00
2018-11-21T01:19:55.183Z,54.80
2018-11-21T01:20:55.213Z,51.10
2018-11-21T01:21:55.251Z,55.90
2018-11-21T01:22:55.279Z,50.30
2018-11-21T01:23:55.313Z,50.30
2018-11-21T01:24:55.349Z,51.70
2018-11-21T01:25:55.384Z,51.60
2018-11-21T01:26:55.419Z,47.50
2018-11-21T01:27:55.454Z,51.00
2018-11-21T01:28:55.490Z,53.60
2018-11-21T01:29:55.524Z,51.50
2018-11-21T01:30:55.559Z,51.80
2018-11-21T01:31:55.592Z,53.40
2018-11-21T01:32:55.627Z,53.70
2018-11-21T01:33:55.663Z,52.30
2018-11-21T01:34:55.695Z,50.20
2018-11-21T01:35:55.741Z,50.00
2018-11-21T01:36:55.769Z,52.00
2018-11-21T01:37:55.800Z,51.50
2018-11-21T01:38:55.836Z,55.20
2018-11-21T01:39:55.914Z,47.70
2018-11-21T01:40:55.903Z,52.60
2018-11-21T01:41:55.992Z,58.00
2018-11-21T01:42:55.991Z,51.70
2018-11-21T01:43:56.015Z,55.10
2018-11-21T01:44:56.042Z,54.00
2018-11-21T01:45:56.076Z,54.30
2018-11-21T01:46:56.114Z,52.60
2018-11-21T01:47:56.146Z,51.90
2018-11-21T01:48:56.433Z,51.10
2018-11-21T01:49:56.216Z,58.00
2018-11-21T01:50:56.250Z,47.60
2018-11-21T01:51:56.289Z,46.80
2018-11-21T01:52:56.319Z,48.40
2018-11-21T01:53:56.359Z,49.80
2018-11-21T01:54:56.393Z,51.90
2018-11-21T01:55:56.423Z,49.30
2018-11-21T01:56:56.460Z,51.40
2018-11-21T01:57:56.505Z,48.20
2018-11-21T01:58:56.641Z,45.40
2018-11-21T01:59:56.563Z,48.00
2018-11-21T02:00:56.598Z,48.90
2018-11-21T02:01:56.633Z,45.80
2018-11-21T02:02:56.666Z,50.10
2018-11-21T02:03:56.707Z,51.20
2018-11-21T02:04:56.736Z,49.60
2018-11-21T02:05:56.775Z,50.90
2018-11-21T02:06:56.804Z,48.10
2018-11-21T02:07:56.846Z,50.20
2018-11-21T02:08:56.884Z,47.80
2018-11-21T02:09:56.942Z,47.70
2018-11-21T02:10:56.944Z,47.50
2018-11-21T02:11:56.978Z,54.30
2018-11-21T02:12:57.012Z,51.60
2018-11-21T02:13:57.049Z,46.40
2018-11-21T02:14:57.080Z,47.90
2018-11-21T02:15:57.115Z,49.50
2018-11-21T02:16:57.151Z,50.20
2018-11-21T02:17:57.186Z,47.00
2018-11-21T02:18:57.218Z,46.70
2018-11-21T02:19:57.262Z,47.50
2018-11-21T02:20:57.293Z,47.90
2018-11-21T02:21:57.328Z,48.10
2018-11-21T02:22:57.358Z,49.10
2018-11-21T02:23:57.394Z,46.50
2018-11-21T02:24:57.429Z,48.20
2018-11-21T02:25:57.463Z,49.90
2018-11-21T02:26:57.500Z,44.30
2018-11-21T02:27:57.562Z,49.10
2018-11-21T02:28:57.567Z,46.80
2018-11-21T02:29:57.600Z,48.50
2018-11-21T02:30:57.640Z,49.20
2018-11-21T02:31:57.677Z,50.40
2018-11-21T02:32:57.707Z,47.30
2018-11-21T02:33:57.749Z,47.40
2018-11-21T02:34:57.784Z,52.20
2018-11-21T02:35:57.811Z,48.70
2018-11-21T02:36:57.843Z,49.60
2018-11-21T02:37:57.878Z,51.90
2018-11-21T02:38:57.914Z,47.40
2018-11-21T02:39:57.958Z,45.10
2018-11-21T02:40:57.984Z,47.60
2018-11-21T02:41:58.018Z,43.30
2018-11-21T02:42:58.058Z,46.30
2018-11-21T02:43:58.088Z,45.70
2018-11-21T02:44:58.122Z,49.60
2018-11-21T02:45:58.163Z,47.30
2018-11-21T02:46:58.189Z,49.20
2018-11-21T02:47:58.227Z,46.10
2018-11-21T02:48:58.304Z,46.80
2018-11-21T02:49:58.351Z,45.70
2018-11-21T02:50:58.339Z,45.60
2018-11-21T02:51:58.363Z,51.70
2018-11-21T02:52:58.398Z,50.30
2018-11-21T02:53:58.433Z,47.90
2018-11-21T02:54:58.468Z,48.90
2018-11-21T02:55:58.502Z,46.90
2018-11-21T02:56:58.540Z,48.10
2018-11-21T02:57:58.571Z,51.50
2018-11-21T02:58:58.605Z,46.20
2018-11-21T02:59:58.641Z,47.90
2018-11-21T03:00:58.699Z,45.50
2018-11-21T03:01:58.711Z,44.60
2018-11-21T03:02:58.748Z,47.20
2018-11-21T03:03:58.780Z,47.10
2018-11-21T03:04:58.814Z,48.00
2018-11-21T03:05:58.853Z,45.00
2018-11-21T03:06:58.883Z,46.60
2018-11-21T03:07:58.917Z,48.90
2018-11-21T03:08:58.954Z,49.00
2018-11-21T03:09:58.987Z,50.90
2018-11-21T03:10:59.035Z,47.70
2018-11-21T03:11:59.057Z,46.20
2018-11-21T03:12:59.092Z,47.10
2018-11-21T03:13:59.131Z,48.90
2018-11-21T03:14:59.162Z,48.40
2018-11-21T03:15:59.196Z,48.20
2018-11-21T03:16:59.233Z,44.90
2018-11-21T03:17:59.266Z,45.70
2018-11-21T03:18:59.301Z,42.20
2018-11-21T03:19:59.339Z,42.70
2018-11-21T03:20:59.370Z,46.30
2018-11-21T03:21:59.406Z,44.50
2018-11-21T03:22:59.442Z,48.50
2018-11-21T03:23:59.472Z,44.10
2018-11-21T03:24:59.508Z,41.50
2018-11-21T03:25:59.544Z,43.20
2018-11-21T03:26:59.582Z,47.40
2018-11-21T03:27:59.612Z,46.70
2018-11-21T03:28:59.646Z,46.60
2018-11-21T03:29:59.681Z,46.10
2018-11-21T03:30:59.723Z,43.40
2018-11-21T03:31:59.757Z,46.50
2018-11-21T03:32:59.786Z,42.30
2018-11-21T03:33:59.822Z,43.90
2018-11-21T03:34:59.857Z,44.60
2018-11-21T03:35:59.894Z,44.60
2018-11-21T03:36:59.926Z,43.80
2018-11-21T03:37:59.979Z,43.10
2018-11-21T03:38:59.994Z,41.30
2018-11-21T03:40:00.033Z,46.70
2018-11-21T03:41:00.221Z,45.60
2018-11-21T03:42:00.101Z,44.20
2018-11-21T03:43:00.134Z,43.30
2018-11-21T03:44:00.169Z,46.00
2018-11-21T03:45:00.204Z,44.70
2018-11-21T03:46:00.239Z,44.00
2018-11-21T03:47:00.275Z,41.60
2018-11-21T03:48:00.313Z,42.70
2018-11-21T03:49:00.345Z,44.50
2018-11-21T03:50:00.380Z,45.60
2018-11-21T03:51:00.425Z,45.00
2018-11-21T03:52:00.456Z,43.10
2018-11-21T03:53:00.482Z,44.20
2018-11-21T03:54:00.518Z,46.10
2018-11-21T03:55:00.555Z,45.70
2018-11-21T03:56:00.588Z,46.30
2018-11-21T03:57:00.621Z,44.40
2018-11-21T03:58:00.656Z,43.40
2018-11-21T03:59:00.692Z,45.90
2018-11-21T04:00:00.727Z,39.50
2018-11-21T04:01:00.761Z,39.00
2018-11-21T04:02:00.798Z,38.90
2018-11-21T04:03:00.852Z,39.90
2018-11-21T04:04:00.867Z,39.90
2018-11-21T04:05:00.902Z,40.30
2018-11-21T04:06:00.949Z,41.00
2018-11-21T04:07:00.971Z,44.50
2018-11-21T04:08:01.009Z,42.00
2018-11-21T04:09:01.044Z,43.70
2018-11-21T04:10:01.078Z,42.60
2018-11-21T04:11:01.115Z,41.60
2018-11-21T04:12:01.151Z,42.70
2018-11-21T04:13:01.184Z,40.40
2018-11-21T04:14:01.220Z,43.30
2018-11-21T04:15:01.253Z,42.50
2018-11-21T04:16:01.294Z,40.60
2018-11-21T04:17:01.327Z,40.50
2018-11-21T04:18:01.361Z,38.70
2018-11-21T04:19:01.396Z,42.30
2018-11-21T04:20:01.429Z,38.20
2018-11-21T04:21:01.467Z,39.30
2018-11-21T04:22:01.509Z,41.10
2018-11-21T04:23:01.536Z,40.50
2018-11-21T04:24:01.610Z,39.60
2018-11-21T04:25:01.615Z,39.50
2018-11-21T04:26:01.649Z,38.60
2018-11-21T04:27:01.680Z,36.70
2018-11-21T04:28:01.725Z,39.60
2018-11-21T04:29:01.751Z,40.90
2018-11-21T04:30:01.783Z,38.60
2018-11-21T04:31:01.824Z,39.00
2018-11-21T04:32:01.852Z,41.70
2018-11-21T04:33:01.886Z,41.00
2018-11-21T04:34:01.923Z,43.00
2018-11-21T04:35:01.957Z,42.00
2018-11-21T04:36:01.999Z,40.70
2018-11-21T04:37:02.028Z,39.00
2018-11-21T04:38:02.064Z,39.10
2018-11-21T04:39:02.096Z,42.00
2018-11-21T04:40:02.133Z,39.50
2018-11-21T04:41:02.169Z,37.50
2018-11-21T04:42:02.206Z,35.90
2018-11-21T04:43:02.238Z,38.50
2018-11-21T04:44:02.274Z,38.20
2018-11-21T04:45:02.315Z,42.50
2018-11-21T04:46:02.345Z,38.90
2018-11-21T04:47:02.407Z,39.80
2018-11-21T04:48:02.419Z,38.60
2018-11-21T04:49:02.461Z,40.10
2018-11-21T04:50:02.513Z,38.30
2018-11-21T04:51:02.530Z,40.30
2018-11-21T04:52:02.559Z,35.80
2018-11-21T04:53:02.593Z,37.00
2018-11-21T04:54:02.631Z,37.20
2018-11-21T04:55:02.663Z,35.90
2018-11-21T04:56:02.702Z,38.70
2018-11-21T04:57:02.739Z,36.90
2018-11-21T04:58:02.775Z,36.90
2018-11-21T04:59:02.804Z,37.00
2018-11-21T05:00:02.839Z,36.30
2018-11-21T05:01:02.884Z,38.80
2018-11-21T05:02:02.911Z,36.90
2018-11-21T05:03:02.946Z,36.70
2018-11-21T05:04:02.986Z,39.20
2018-11-21T05:05:03.017Z,38.10
2018-11-21T05:06:03.051Z,38.40
2018-11-21T05:07:03.161Z,36.80
2018-11-21T05:08:03.255Z,40.00
2018-11-21T05:09:03.158Z,38.70
2018-11-21T05:10:03.194Z,38.70
2018-11-21T05:11:03.230Z,38.60
2018-11-21T05:12:03.272Z,37.50
2018-11-21T05:13:03.299Z,37.70
2018-11-21T05:14:03.333Z,39.00
2018-11-21T05:15:03.390Z,39.70
2018-11-21T05:16:03.405Z,37.00
2018-11-21T05:17:03.442Z,37.80
2018-11-21T05:18:03.475Z,38.00
2018-11-21T05:19:03.512Z,39.50
2018-11-21T05:20:03.545Z,38.10
2018-11-21T05:21:03.603Z,37.70
2018-11-21T05:22:03.625Z,38.60
2018-11-21T05:23:03.653Z,41.40
2018-11-21T05:24:03.694Z,37.60
2018-11-21T05:25:03.722Z,39.50
2018-11-21T05:26:03.780Z,39.80
2018-11-21T05:27:03.795Z,35.50
2018-11-21T05:28:03.828Z,39.20
2018-11-21T05:29:03.864Z,41.20
2018-11-21T05:30:03.915Z,38.10
2018-11-21T05:31:03.938Z,38.00
2018-11-21T05:32:03.972Z,39.70
2018-11-21T05:33:04.006Z,40.10
2018-11-21T05:34:04.041Z,38.20
2018-11-21T05:35:04.074Z,40.80
2018-11-21T05:36:04.112Z,40.10
2018-11-21T05:37:04.147Z,42.10
2018-11-21T05:38:04.180Z,38.80
2018-11-21T05:39:04.218Z,40.30
2018-11-21T05:40:04.249Z,38.80
2018-11-21T05:41:04.286Z,39.50
2018-11-21T05:42:04.322Z,41.50
2018-11-21T05:43:04.356Z,41.30
2018-11-21T05:44:04.398Z,38.40
2018-11-21T05:45:04.427Z,38.70
2018-11-21T05:46:04.463Z,40.40
2018-11-21T05:47:04.496Z,40.80
2018-11-21T05:48:04.532Z,42.20
2018-11-21T05:49:04.568Z,39.10
2018-11-21T05:50:04.604Z,38.20
2018-11-21T05:51:04.638Z,39.70
2018-11-21T05:52:04.674Z,41.00
2018-11-21T05:53:04.710Z,44.00
2018-11-21T05:54:04.746Z,41.10
2018-11-21T05:55:04.780Z,41.00
2018-11-21T05:56:04.814Z,43.30
2018-11-21T05:57:04.850Z,44.50
2018-11-21T05:58:04.891Z,40.60
2018-11-21T05:59:04.924Z,41.00
2018-11-21T06:00:04.967Z,41.00
2018-11-21T06:01:04.996Z,41.60
2018-11-21T06:02:05.037Z,43.10
2018-11-21T06:03:05.164Z,41.00
2018-11-21T06:04:05.100Z,43.30
2018-11-21T06:05:05.137Z,38.60
2018-11-21T06:06:09.971Z,42.50
2018-11-21T06:07:05.202Z,40.70
2018-11-21T06:08:05.238Z,39.00
2018-11-21T06:09:05.274Z,41.80
2018-11-21T06:10:05.319Z,38.90
2018-11-21T06:11:05.346Z,40.50
2018-11-21T06:12:05.383Z,40.70
2018-11-21T06:13:05.415Z,39.40
2018-11-21T06:14:05.454Z,41.40
2018-11-21T06:15:05.486Z,42.50
2018-11-21T06:16:05.562Z,40.30
2018-11-21T06:17:05.562Z,39.30
2018-11-21T06:18:05.596Z,40.10
2018-11-21T06:19:05.626Z,37.90
2018-11-21T06:20:05.663Z,41.40
2018-11-21T06:21:05.697Z,39.20
2018-11-21T06:22:05.732Z,39.50
2018-11-21T06:23:05.768Z,41.60
2018-11-21T06:24:05.803Z,40.20
2018-11-21T06:25:05.862Z,40.10
2018-11-21T06:26:05.875Z,40.70
2018-11-21T06:27:05.912Z,39.50
2018-11-21T06:28:05.958Z,38.00
2018-11-21T06:29:05.981Z,39.20
2018-11-21T06:30:06.014Z,38.70
2018-11-21T06:31:06.051Z,38.00
2018-11-21T06:32:06.088Z,37.60
2018-11-21T06:33:06.123Z,38.70
2018-11-21T06:34:06.158Z,36.80
2018-11-21T06:35:06.191Z,35.70
2018-11-21T06:36:06.226Z,39.10
2018-11-21T06:37:06.263Z,38.30
2018-11-21T06:38:06.300Z,40.10
2018-11-21T06:39:06.331Z,41.70
2018-11-21T06:40:06.369Z,39.90
2018-11-21T06:41:06.404Z,40.80
2018-11-21T06:42:06.440Z,40.50
2018-11-21T06:43:06.477Z,43.00
2018-11-21T06:44:06.510Z,41.50
2018-11-21T06:45:06.545Z,38.10
2018-11-21T06:46:06.579Z,39.80
2018-11-21T06:47:06.615Z,39.90
2018-11-21T06:48:06.652Z,39.60
2018-11-21T06:49:06.691Z,40.70
2018-11-21T06:50:06.720Z,39.10
2018-11-21T06:51:06.754Z,37.70
2018-11-21T06:52:06.792Z,37.60
2018-11-21T06:53:06.832Z,39.50
2018-11-21T06:54:06.861Z,36.70
2018-11-21T06:55:06.901Z,37.50
2018-11-21T06:56:06.931Z,38.10
2018-11-21T06:57:06.968Z,36.70
2018-11-21T06:58:07.004Z,36.70
2018-11-21T06:59:07.046Z,37.90
2018-11-21T07:00:07.075Z,38.00
2018-11-21T07:01:07.138Z,36.80
2018-11-21T07:02:07.146Z,36.80
2018-11-21T07:03:07.180Z,37.10
2018-11-21T07:04:07.336Z,38.60
2018-11-21T07:05:07.250Z,38.30
2018-11-21T07:06:07.284Z,39.40
2018-11-21T07:07:07.328Z,42.30
2018-11-21T07:08:07.364Z,38.80
2018-11-21T07:09:07.391Z,40.80
2018-11-21T07:10:07.432Z,38.50
2018-11-21T07:11:07.472Z,39.70
2018-11-21T07:12:07.506Z,37.50
2018-11-21T07:13:11.014Z,37.80
2018-11-21T07:14:07.567Z,41.40
2018-11-21T07:15:07.601Z,40.60
2018-11-21T07:16:07.637Z,37.60
2018-11-21T07:17:07.672Z,39.40
2018-11-21T07:18:07.709Z,37.10
2018-11-21T07:19:07.743Z,41.50
2018-11-21T07:20:07.784Z,41.90
2018-11-21T07:21:07.822Z,39.10
2018-11-21T07:22:07.855Z,40.00
2018-11-21T07:23:07.885Z,40.50
2018-11-21T07:24:07.923Z,38.70
2018-11-21T07:25:07.954Z,40.30
2018-11-21T07:26:07.997Z,36.00
2018-11-21T07:27:08.024Z,40.50
2018-11-21T07:28:13.008Z,39.80
2018-11-21T07:29:08.103Z,39.50
2018-11-21T07:30:08.139Z,37.80
2018-11-21T07:31:08.165Z,40.90
2018-11-21T07:32:08.205Z,39.70
2018-11-21T07:33:08.237Z,58.70
2018-11-21T07:34:08.276Z,52.60
2018-11-21T07:35:08.308Z,55.20
2018-11-21T07:36:08.399Z,46.80
2018-11-21T07:37:08.383Z,42.10
2018-11-21T07:38:08.451Z,41.00
2018-11-21T07:39:08.447Z,38.30
2018-11-21T07:40:08.484Z,39.50
2018-11-21T07:41:08.519Z,40.10
2018-11-21T07:42:08.559Z,41.50
2018-11-21T07:43:08.588Z,42.10
2018-11-21T07:44:08.627Z,40.10
2018-11-21T07:45:08.659Z,41.90
2018-11-21T07:46:08.698Z,42.30
2018-11-21T07:47:08.731Z,41.70
2018-11-21T07:48:08.771Z,42.80
2018-11-21T07:49:08.984Z,44.00
2018-11-21T07:50:08.840Z,41.90
2018-11-21T07:51:08.873Z,39.50
2018-11-21T07:52:08.905Z,44.00
2018-11-21T07:53:08.944Z,41.20
2018-11-21T07:54:08.978Z,41.20
2018-11-21T07:55:09.012Z,45.40
2018-11-21T07:56:09.051Z,42.60
2018-11-21T07:57:09.087Z,42.50
2018-11-21T07:58:09.132Z,44.90
2018-11-21T07:59:09.158Z,40.60
2018-11-21T08:00:09.189Z,41.00
2018-11-21T08:01:09.224Z,42.30
2018-11-21T08:02:09.314Z,41.80
2018-11-21T08:03:09.295Z,43.80
2018-11-21T08:04:09.334Z,42.30
2018-11-21T08:05:09.368Z,46.90
2018-11-21T08:06:09.401Z,42.70
2018-11-21T08:07:09.436Z,42.50
2018-11-21T08:08:09.576Z,43.00
2018-11-21T08:09:09.508Z,43.00
2018-11-21T08:10:09.545Z,44.40
2018-11-21T08:11:09.577Z,45.90
2018-11-21T08:12:09.624Z,45.00
2018-11-21T08:13:09.662Z,47.30
2018-11-21T08:14:09.687Z,47.50
2018-11-21T08:15:09.724Z,41.70
2018-11-21T08:16:09.756Z,44.30
2018-11-21T08:17:09.792Z,46.60
2018-11-21T08:18:09.829Z,45.50
2018-11-21T08:19:09.865Z,44.10
2018-11-21T08:20:09.898Z,45.80
2018-11-21T08:21:09.933Z,47.20
2018-11-21T08:22:09.968Z,45.00
2018-11-21T08:23:10.003Z,44.90
2018-11-21T08:24:10.041Z,45.70
2018-11-21T08:25:10.077Z,46.10
2018-11-21T08:26:10.114Z,47.80
2018-11-21T08:27:10.151Z,44.70
2018-11-21T08:28:10.181Z,41.80
2018-11-21T08:29:10.226Z,45.30
2018-11-21T08:30:10.262Z,41.90
2018-11-21T08:31:10.292Z,44.30
2018-11-21T08:32:10.323Z,44.40
2018-11-21T08:33:10.357Z,41.80
2018-11-21T08:34:10.403Z,44.70
2018-11-21T08:35:10.429Z,45.60
2018-11-21T08:36:10.487Z,52.70
2018-11-21T08:37:10.651Z,49.60
2018-11-21T08:38:10.542Z,48.90
2018-11-21T08:39:10.571Z,49.10
2018-11-21T08:40:10.608Z,45.70
2018-11-21T08:41:10.645Z,45.60
2018-11-21T08:42:10.686Z,45.90
2018-11-21T08:43:10.741Z,60.10
2018-11-21T08:44:10.750Z,58.10
2018-11-21T08:45:10.786Z,48.20
2018-11-21T08:46:10.827Z,50.20
2018-11-21T08:47:10.855Z,49.20
2018-11-21T08:48:10.891Z,47.50
2018-11-21T08:49:10.931Z,47.70
2018-11-21T08:50:10.963Z,45.90
2018-11-21T08:51:11.000Z,47.30
2018-11-21T08:52:11.034Z,51.30
2018-11-21T08:53:11.070Z,51.00
2018-11-21T08:54:11.106Z,49.20
2018-11-21T08:55:11.144Z,49.00
2018-11-21T08:56:11.181Z,50.40
2018-11-21T08:57:11.212Z,47.40
2018-11-21T08:58:11.249Z,57.80
2018-11-21T08:59:11.286Z,54.60
2018-11-21T09:00:11.343Z,50.20
2018-11-21T09:01:11.355Z,51.80
2018-11-21T09:02:11.390Z,48.60
2018-11-21T09:03:11.424Z,53.40
2018-11-21T09:04:11.463Z,53.00
2018-11-21T09:05:11.497Z,52.10
2018-11-21T09:06:11.535Z,52.70
2018-11-21T09:07:11.567Z,59.50
2018-11-21T09:08:11.619Z,50.40
2018-11-21T09:09:11.642Z,63.00
2018-11-21T09:10:11.674Z,66.50
2018-11-21T09:11:11.712Z,62.20
2018-11-21T09:12:15.311Z,58.60
2018-11-21T09:13:11.789Z,56.90
2018-11-21T09:14:11.816Z,59.20
2018-11-21T09:15:11.856Z,56.20
2018-11-21T09:16:11.890Z,49.50
2018-11-21T09:17:11.923Z,50.40
2018-11-21T09:18:11.963Z,51.10
2018-11-21T09:19:11.994Z,81.60
2018-11-21T09:20:12.074Z,68.00
2018-11-21T09:21:12.065Z,60.40
2018-11-21T09:22:12.109Z,56.90
2018-11-21T09:23:12.137Z,72.00
2018-11-21T09:24:12.181Z,58.10
2018-11-21T09:25:12.212Z,54.80
2018-11-21T09:26:12.249Z,53.20
2018-11-21T09:27:12.280Z,52.90
2018-11-21T09:28:12.324Z,51.20
2018-11-21T09:29:12.353Z,51.70
2018-11-21T09:30:12.396Z,61.20
2018-11-21T09:31:12.422Z,54.10
2018-11-21T09:32:12.459Z,58.90
2018-11-21T09:33:12.495Z,59.40
2018-11-21T09:34:12.538Z,70.20
2018-11-21T09:35:12.568Z,70.30
2018-11-21T09:36:12.601Z,73.80
2018-11-21T09:37:12.690Z,52.30
2018-11-21T09:38:12.681Z,54.30
2018-11-21T09:39:12.728Z,48.60
2018-11-21T09:40:12.745Z,60.70
2018-11-21T09:41:12.781Z,49.50
2018-11-21T09:42:12.822Z,48.40
2018-11-21T09:43:12.851Z,54.50
2018-11-21T09:44:12.888Z,65.70
2018-11-21T09:45:12.939Z,50.90
2018-11-21T09:46:17.198Z,48.60
2018-11-21T09:47:12.997Z,48.20
2018-11-21T09:48:13.154Z,47.90
2018-11-21T09:49:13.068Z,50.50
2018-11-21T09:50:13.106Z,52.70
2018-11-21T09:51:13.139Z,65.10
2018-11-21T09:52:13.176Z,53.40
2018-11-21T09:53:13.219Z,45.80
2018-11-21T09:54:13.248Z,47.30
2018-11-21T09:55:13.332Z,57.00
2018-11-21T09:56:13.328Z,76.40
2018-11-21T09:57:13.435Z,76.30
2018-11-21T09:58:13.397Z,72.00
2018-11-21T09:59:13.434Z,72.60
2018-11-21T10:00:13.465Z,58.80
2018-11-21T10:01:13.551Z,71.70
2018-11-21T10:02:13.545Z,67.90
2018-11-21T10:03:13.570Z,47.80
2018-11-21T10:04:13.613Z,50.50
2018-11-21T10:05:13.645Z,45.00
2018-11-21T10:06:13.682Z,43.80
2018-11-21T10:07:13.719Z,46.60
2018-11-21T10:08:13.752Z,46.90
2018-11-21T10:09:13.789Z,47.10
2018-11-21T10:10:13.826Z,51.10
2018-11-21T10:11:13.861Z,44.90
2018-11-21T10:12:13.896Z,43.40
2018-11-21T10:13:13.931Z,48.50
2018-11-21T10:14:13.968Z,45.80
2018-11-21T10:15:14.004Z,47.80
2018-11-21T10:16:14.040Z,61.40
2018-11-21T10:17:14.080Z,49.30
2018-11-21T10:18:14.112Z,54.70
2018-11-21T10:19:14.147Z,54.80
2018-11-21T10:20:14.235Z,66.00
2018-11-21T10:21:14.220Z,46.60
2018-11-21T10:22:14.257Z,47.90
2018-11-21T10:23:14.293Z,47.50
2018-11-21T10:24:14.329Z,44.20
2018-11-21T10:25:14.366Z,50.40
2018-11-21T10:26:14.400Z,52.60
2018-11-21T10:27:14.585Z,48.50
2018-11-21T10:28:14.488Z,43.10
2018-11-21T10:29:14.507Z,48.30
2018-11-21T10:30:14.548Z,45.60
2018-11-21T10:31:14.587Z,52.00
2018-11-21T10:32:14.623Z,50.80
2018-11-21T10:33:14.658Z,54.30
2018-11-21T10:34:14.689Z,55.30
2018-11-21T10:35:14.743Z,57.60
2018-11-21T10:36:14.762Z,66.70
2018-11-21T10:37:14.797Z,79.80
2018-11-21T10:38:14.856Z,70.00
2018-11-21T10:39:14.870Z,61.60
2018-11-21T10:40:14.906Z,48.70
2018-11-21T10:41:14.949Z,48.10
2018-11-21T10:42:14.977Z,53.50
2018-11-21T10:43:15.020Z,46.70
2018-11-21T10:44:15.051Z,51.60
2018-11-21T10:45:15.084Z,55.80
2018-11-21T10:46:15.124Z,52.30
2018-11-21T10:47:15.158Z,50.40
2018-11-21T10:48:15.192Z,51.30
2018-11-21T10:49:15.233Z,44.50
2018-11-21T10:50:15.270Z,47.80
2018-11-21T10:51:15.310Z,47.20
2018-11-21T10:52:15.341Z,49.20
2018-11-21T10:53:15.538Z,45.70
2018-11-21T10:54:15.416Z,48.10
2018-11-21T10:55:15.447Z,51.20
2018-11-21T10:56:15.492Z,59.90
2018-11-21T10:57:15.518Z,50.60
2018-11-21T10:58:15.555Z,51.40
2018-11-21T10:59:15.590Z,46.10
2018-11-21T11:00:15.626Z,48.90
2018-11-21T11:01:15.665Z,51.40
2018-11-21T11:02:15.698Z,50.60
2018-11-21T11:03:15.734Z,58.00
2018-11-21T11:04:15.794Z,58.60
2018-11-21T11:05:15.814Z,55.00
2018-11-21T11:06:15.843Z,55.70
2018-11-21T11:07:15.877Z,53.30
2018-11-21T11:08:15.915Z,54.80
2018-11-21T11:09:16.923Z,52.70
2018-11-21T11:10:15.989Z,51.30
2018-11-21T11:11:16.023Z,50.50
2018-11-21T11:12:16.062Z,53.20
2018-11-21T11:13:16.099Z,56.50
2018-11-21T11:14:16.132Z,53.10
2018-11-21T11:15:16.168Z,52.20
2018-11-21T11:16:16.211Z,57.80
2018-11-21T11:17:16.240Z,55.20
2018-11-21T11:18:16.275Z,52.00
2018-11-21T11:19:16.312Z,53.90
2018-11-21T11:20:16.355Z,47.80
2018-11-21T11:21:16.405Z,52.80
2018-11-21T11:22:16.424Z,51.30
2018-11-21T11:23:16.460Z,53.90
2018-11-21T11:24:16.595Z,62.00
2018-11-21T11:25:16.529Z,58.90
2018-11-21T11:26:16.567Z,54.10
2018-11-21T11:27:16.599Z,52.70
2018-11-21T11:28:16.645Z,52.40
2018-11-21T11:29:16.676Z,57.20
2018-11-21T11:30:16.810Z,53.40
2018-11-21T11:31:16.795Z,54.40
2018-11-21T11:32:16.781Z,52.10
2018-11-21T11:33:16.817Z,56.80
2018-11-21T11:34:16.853Z,53.20
2018-11-21T11:35:16.888Z,55.80
2018-11-21T11:36:16.923Z,56.90
2018-11-21T11:37:16.963Z,49.20
2018-11-21T11:38:16.997Z,53.40
2018-11-21T11:39:17.032Z,51.20
2018-11-21T11:40:17.079Z,54.60
2018-11-21T11:41:17.120Z,53.40
2018-11-21T11:42:17.152Z,56.40
2018-11-21T11:43:17.185Z,53.50
2018-11-21T11:44:17.214Z,51.30
2018-11-21T11:45:17.249Z,52.40
2018-11-21T11:46:17.290Z,52.60
2018-11-21T11:47:17.322Z,51.20
2018-11-21T11:48:17.370Z,53.80
2018-11-21T11:49:17.394Z,53.40
2018-11-21T11:50:17.429Z,52.00
2018-11-21T11:51:17.473Z,52.10
2018-11-21T11:52:17.501Z,53.40
2018-11-21T11:53:17.537Z,54.30
2018-11-21T11:54:17.573Z,52.30
2018-11-21T11:55:17.609Z,53.30
2018-11-21T11:56:17.655Z,53.00
2018-11-21T11:57:17.748Z,52.80
2018-11-21T11:58:17.719Z,52.70
2018-11-21T11:59:17.755Z,52.80
2018-11-21T12:00:17.793Z,58.70
2018-11-21T12:01:17.827Z,54.70
2018-11-21T12:02:17.861Z,58.70
2018-11-21T12:03:17.902Z,57.00
2018-11-21T12:04:17.936Z,61.10
2018-11-21T12:05:17.975Z,58.90
2018-11-21T12:06:18.016Z,61.10
2018-11-21T12:07:18.045Z,58.40
2018-11-21T12:08:18.082Z,51.80
2018-11-21T12:09:18.117Z,56.60
2018-11-21T12:10:18.155Z,53.90
2018-11-21T12:11:18.188Z,54.20
2018-11-21T12:12:18.234Z,57.30
2018-11-21T12:13:18.262Z,56.90
2018-11-21T12:14:18.306Z,53.10
2018-11-21T12:15:18.334Z,53.20
2018-11-21T12:16:18.369Z,51.20
2018-11-21T12:17:18.407Z,54.40
2018-11-21T12:18:18.444Z,54.60
2018-11-21T12:19:18.480Z,55.70
2018-11-21T12:20:18.515Z,54.80
2018-11-21T12:21:18.553Z,53.50
2018-11-21T12:22:18.693Z,52.80
2018-11-21T12:23:18.624Z,52.70
2018-11-21T12:24:18.657Z,53.60
2018-11-21T12:25:18.700Z,52.90
2018-11-21T12:26:18.742Z,54.40
2018-11-21T12:27:18.768Z,55.70
2018-11-21T12:28:18.813Z,53.20
2018-11-21T12:29:18.847Z,60.20
2018-11-21T12:30:18.877Z,54.80
2018-11-21T12:31:18.913Z,55.60
2018-11-21T12:32:18.950Z,56.30
2018-11-21T12:33:18.985Z,53.50
2018-11-21T12:34:19.024Z,58.40
2018-11-21T12:35:19.061Z,57.00
2018-11-21T12:36:19.098Z,59.00
2018-11-21T12:37:19.131Z,56.30
2018-11-21T12:38:19.171Z,57.10
2018-11-21T12:39:19.203Z,55.50
2018-11-21T12:40:19.239Z,56.20
2018-11-21T12:41:19.274Z,57.50
2018-11-21T12:42:19.311Z,58.90
2018-11-21T12:43:19.349Z,64.20
2018-11-21T12:44:19.384Z,61.00
2018-11-21T12:45:19.422Z,62.70
2018-11-21T12:46:19.465Z,58.10
2018-11-21T12:47:19.491Z,57.30
2018-11-21T12:48:19.532Z,59.90
2018-11-21T12:49:19.573Z,57.00
2018-11-21T12:50:19.615Z,60.50
2018-11-21T12:51:19.685Z,59.20
2018-11-21T12:52:19.671Z,61.10
2018-11-21T12:53:19.710Z,60.30